sensor_id;sensor_type;location;lat;lon;timestamp;P1;durP1;ratioP1;P2;durP2;ratioP2
11835;SDS011;5977;51.972;7.640;2023-03-21T00:01:49;146.23;;;47.37;;
11835;SDS011;5977;51.972;7.640;2023-03-21T00:04:18;146.10;;;47.23;;
11835;SDS011;5977;51.972;7.640;2023-03-21T00:06:46;146.17;;;47.10;;
11835;SDS011;5977;51.972;7.640;2023-03-21T00:09:14;146.17;;;47.40;;
11835;SDS011;5977;51.972;7.640;2023-03-21T00:11:42;145.73;;;47.00;;
11835;SDS011;5977;51.972;7.640;2023-03-21T00:14:10;146.30;;;47.20;;
11835;SDS011;5977;51.972;7.640;2023-03-21T00:16:40;146.63;;;47.37;;
11835;SDS011;5977;51.972;7.640;2023-03-21T00:19:12;146.30;;;47.37;;
11835;SDS011;5977;51.972;7.640;2023-03-21T00:21:41;145.73;;;47.00;;
11835;SDS011;5977;51.972;7.640;2023-03-21T00:24:29;146.20;;;47.40;;
11835;SDS011;5977;51.972;7.640;2023-03-21T00:26:56;146.67;;;47.40;;
11835;SDS011;5977;51.972;7.640;2023-03-21T00:29:45;146.03;;;47.00;;
11835;SDS011;5977;51.972;7.640;2023-03-21T00:32:16;146.23;;;47.20;;
11835;SDS011;5977;51.972;7.640;2023-03-21T00:34:47;146.27;;;47.20;;
11835;SDS011;5977;51.972;7.640;2023-03-21T00:37:37;145.97;;;47.10;;
11835;SDS011;5977;51.972;7.640;2023-03-21T00:40:05;145.83;;;47.00;;
11835;SDS011;5977;51.972;7.640;2023-03-21T00:42:48;146.10;;;47.20;;
11835;SDS011;5977;51.972;7.640;2023-03-21T00:45:17;146.30;;;47.23;;
11835;SDS011;5977;51.972;7.640;2023-03-21T00:47:47;146.37;;;47.30;;
11835;SDS011;5977;51.972;7.640;2023-03-21T00:50:17;146.20;;;47.20;;
11835;SDS011;5977;51.972;7.640;2023-03-21T00:52:46;145.93;;;47.23;;
11835;SDS011;5977;51.972;7.640;2023-03-21T00:55:14;146.37;;;47.27;;
11835;SDS011;5977;51.972;7.640;2023-03-21T00:57:44;145.87;;;47.13;;
11835;SDS011;5977;51.972;7.640;2023-03-21T01:00:22;146.00;;;47.10;;
11835;SDS011;5977;51.972;7.640;2023-03-21T01:02:50;146.03;;;47.07;;
11835;SDS011;5977;51.972;7.640;2023-03-21T01:05:36;146.50;;;47.33;;
11835;SDS011;5977;51.972;7.640;2023-03-21T01:08:24;145.67;;;47.10;;
11835;SDS011;5977;51.972;7.640;2023-03-21T01:11:04;146.93;;;47.53;;
11835;SDS011;5977;51.972;7.640;2023-03-21T01:13:34;146.70;;;47.47;;
11835;SDS011;5977;51.972;7.640;2023-03-21T01:16:09;146.80;;;47.50;;
11835;SDS011;5977;51.972;7.640;2023-03-21T01:18:38;146.20;;;47.20;;
11835;SDS011;5977;51.972;7.640;2023-03-21T01:21:10;146.33;;;47.27;;
11835;SDS011;5977;51.972;7.640;2023-03-21T01:23:40;147.10;;;47.63;;
11835;SDS011;5977;51.972;7.640;2023-03-21T01:26:09;146.27;;;47.27;;
11835;SDS011;5977;51.972;7.640;2023-03-21T01:28:38;146.03;;;47.20;;
11835;SDS011;5977;51.972;7.640;2023-03-21T01:31:07;146.50;;;47.30;;
11835;SDS011;5977;51.972;7.640;2023-03-21T01:33:37;146.30;;;47.27;;
11835;SDS011;5977;51.972;7.640;2023-03-21T01:36:06;146.60;;;47.40;;
11835;SDS011;5977;51.972;7.640;2023-03-21T01:38:41;146.37;;;47.37;;
11835;SDS011;5977;51.972;7.640;2023-03-21T01:41:11;145.97;;;47.10;;
11835;SDS011;5977;51.972;7.640;2023-03-21T01:43:47;146.23;;;47.20;;
11835;SDS011;5977;51.972;7.640;2023-03-21T01:49:28;146.07;;;47.30;;
11835;SDS011;5977;51.972;7.640;2023-03-21T01:52:14;145.90;;;47.23;;
11835;SDS011;5977;51.972;7.640;2023-03-21T01:55:04;145.87;;;47.10;;
11835;SDS011;5977;51.972;7.640;2023-03-21T01:57:42;145.73;;;47.03;;
11835;SDS011;5977;51.972;7.640;2023-03-21T02:00:34;145.93;;;47.17;;
11835;SDS011;5977;51.972;7.640;2023-03-21T02:03:17;145.73;;;46.97;;
11835;SDS011;5977;51.972;7.640;2023-03-21T02:06:14;145.67;;;47.00;;
11835;SDS011;5977;51.972;7.640;2023-03-21T02:08:51;146.33;;;47.23;;
11835;SDS011;5977;51.972;7.640;2023-03-21T02:11:21;145.90;;;47.17;;
11835;SDS011;5977;51.972;7.640;2023-03-21T02:13:50;146.27;;;47.37;;
11835;SDS011;5977;51.972;7.640;2023-03-21T02:16:40;145.80;;;47.00;;
11835;SDS011;5977;51.972;7.640;2023-03-21T02:19:18;146.23;;;47.30;;
11835;SDS011;5977;51.972;7.640;2023-03-21T02:22:23;145.97;;;47.17;;
11835;SDS011;5977;51.972;7.640;2023-03-21T02:25:11;146.03;;;47.20;;
11835;SDS011;5977;51.972;7.640;2023-03-21T02:28:03;146.27;;;47.30;;
11835;SDS011;5977;51.972;7.640;2023-03-21T02:30:52;146.20;;;47.10;;
11835;SDS011;5977;51.972;7.640;2023-03-21T02:33:58;145.77;;;47.20;;
11835;SDS011;5977;51.972;7.640;2023-03-21T02:36:59;145.63;;;47.03;;
11835;SDS011;5977;51.972;7.640;2023-03-21T02:39:43;145.77;;;47.00;;
11835;SDS011;5977;51.972;7.640;2023-03-21T02:42:24;146.20;;;47.30;;
11835;SDS011;5977;51.972;7.640;2023-03-21T02:45:01;145.73;;;47.10;;
11835;SDS011;5977;51.972;7.640;2023-03-21T02:47:37;145.87;;;47.03;;
11835;SDS011;5977;51.972;7.640;2023-03-21T02:50:09;146.63;;;47.40;;
11835;SDS011;5977;51.972;7.640;2023-03-21T02:52:43;145.57;;;47.00;;
11835;SDS011;5977;51.972;7.640;2023-03-21T02:55:14;146.07;;;47.23;;
11835;SDS011;5977;51.972;7.640;2023-03-21T02:57:55;145.80;;;47.10;;
11835;SDS011;5977;51.972;7.640;2023-03-21T03:00:38;146.00;;;47.13;;
11835;SDS011;5977;51.972;7.640;2023-03-21T03:03:08;145.50;;;47.03;;
11835;SDS011;5977;51.972;7.640;2023-03-21T03:05:47;146.00;;;47.20;;
11835;SDS011;5977;51.972;7.640;2023-03-21T03:08:20;145.83;;;47.10;;
11835;SDS011;5977;51.972;7.640;2023-03-21T03:11:11;145.53;;;46.93;;
11835;SDS011;5977;51.972;7.640;2023-03-21T03:13:52;145.50;;;47.00;;
11835;SDS011;5977;51.972;7.640;2023-03-21T03:16:53;145.27;;;46.90;;
11835;SDS011;5977;51.972;7.640;2023-03-21T03:19:31;144.93;;;46.67;;
11835;SDS011;5977;51.972;7.640;2023-03-21T03:22:16;145.67;;;47.13;;
11835;SDS011;5977;51.972;7.640;2023-03-21T03:24:52;145.47;;;46.87;;
11835;SDS011;5977;51.972;7.640;2023-03-21T03:27:35;144.80;;;46.73;;
11835;SDS011;5977;51.972;7.640;2023-03-21T03:30:07;145.17;;;46.90;;
11835;SDS011;5977;51.972;7.640;2023-03-21T03:32:39;145.50;;;47.00;;
11835;SDS011;5977;51.972;7.640;2023-03-21T03:35:12;145.60;;;47.00;;
11835;SDS011;5977;51.972;7.640;2023-03-21T03:37:42;145.47;;;46.97;;
11835;SDS011;5977;51.972;7.640;2023-03-21T03:40:16;145.37;;;46.90;;
11835;SDS011;5977;51.972;7.640;2023-03-21T03:43:01;145.40;;;47.00;;
11835;SDS011;5977;51.972;7.640;2023-03-21T03:45:36;145.20;;;46.90;;
11835;SDS011;5977;51.972;7.640;2023-03-21T03:48:12;145.43;;;46.90;;
11835;SDS011;5977;51.972;7.640;2023-03-21T03:50:46;145.40;;;46.93;;
11835;SDS011;5977;51.972;7.640;2023-03-21T03:53:22;145.10;;;46.90;;
11835;SDS011;5977;51.972;7.640;2023-03-21T03:55:56;145.67;;;47.07;;
11835;SDS011;5977;51.972;7.640;2023-03-21T03:58:25;145.60;;;46.93;;
11835;SDS011;5977;51.972;7.640;2023-03-21T04:01:11;145.97;;;47.27;;
11835;SDS011;5977;51.972;7.640;2023-03-21T04:03:40;145.50;;;47.00;;
11835;SDS011;5977;51.972;7.640;2023-03-21T04:06:17;145.57;;;47.00;;
11835;SDS011;5977;51.972;7.640;2023-03-21T04:08:48;145.80;;;47.07;;
11835;SDS011;5977;51.972;7.640;2023-03-21T04:11:18;146.17;;;47.30;;
11835;SDS011;5977;51.972;7.640;2023-03-21T04:13:50;145.30;;;46.93;;
11835;SDS011;5977;51.972;7.640;2023-03-21T04:16:20;145.50;;;47.10;;
11835;SDS011;5977;51.972;7.640;2023-03-21T04:18:50;145.40;;;46.93;;
11835;SDS011;5977;51.972;7.640;2023-03-21T04:21:17;146.37;;;47.23;;
11835;SDS011;5977;51.972;7.640;2023-03-21T04:23:46;145.67;;;47.00;;
11835;SDS011;5977;51.972;7.640;2023-03-21T04:26:14;146.10;;;47.27;;
11835;SDS011;5977;51.972;7.640;2023-03-21T04:28:55;146.10;;;47.20;;
11835;SDS011;5977;51.972;7.640;2023-03-21T04:31:45;145.10;;;46.73;;
11835;SDS011;5977;51.972;7.640;2023-03-21T04:34:16;145.57;;;47.00;;
11835;SDS011;5977;51.972;7.640;2023-03-21T04:36:50;146.13;;;47.20;;
11835;SDS011;5977;51.972;7.640;2023-03-21T04:39:19;145.43;;;47.00;;
11835;SDS011;5977;51.972;7.640;2023-03-21T04:41:48;145.67;;;47.10;;
11835;SDS011;5977;51.972;7.640;2023-03-21T04:44:17;146.50;;;47.40;;
11835;SDS011;5977;51.972;7.640;2023-03-21T04:46:46;146.30;;;47.23;;
11835;SDS011;5977;51.972;7.640;2023-03-21T04:49:14;145.83;;;47.20;;
11835;SDS011;5977;51.972;7.640;2023-03-21T04:51:42;145.90;;;47.07;;
11835;SDS011;5977;51.972;7.640;2023-03-21T04:54:13;145.40;;;46.97;;
11835;SDS011;5977;51.972;7.640;2023-03-21T04:56:41;145.43;;;46.97;;
11835;SDS011;5977;51.972;7.640;2023-03-21T04:59:11;145.43;;;47.07;;
11835;SDS011;5977;51.972;7.640;2023-03-21T05:01:42;146.00;;;47.20;;
11835;SDS011;5977;51.972;7.640;2023-03-21T05:04:10;145.87;;;47.20;;
11835;SDS011;5977;51.972;7.640;2023-03-21T05:06:40;146.13;;;47.30;;
11835;SDS011;5977;51.972;7.640;2023-03-21T05:09:08;145.90;;;47.10;;
11835;SDS011;5977;51.972;7.640;2023-03-21T05:11:37;146.60;;;47.37;;
11835;SDS011;5977;51.972;7.640;2023-03-21T05:14:07;146.17;;;47.20;;
11835;SDS011;5977;51.972;7.640;2023-03-21T05:16:37;146.40;;;47.37;;
11835;SDS011;5977;51.972;7.640;2023-03-21T05:19:16;145.63;;;47.00;;
11835;SDS011;5977;51.972;7.640;2023-03-21T05:21:46;146.97;;;47.50;;
11835;SDS011;5977;51.972;7.640;2023-03-21T05:24:24;145.67;;;46.97;;
11835;SDS011;5977;51.972;7.640;2023-03-21T05:26:52;146.30;;;47.23;;
11835;SDS011;5977;51.972;7.640;2023-03-21T05:29:23;145.73;;;47.07;;
11835;SDS011;5977;51.972;7.640;2023-03-21T05:31:59;145.37;;;46.90;;
11835;SDS011;5977;51.972;7.640;2023-03-21T05:34:28;145.67;;;47.03;;
11835;SDS011;5977;51.972;7.640;2023-03-21T05:36:58;146.00;;;47.20;;
11835;SDS011;5977;51.972;7.640;2023-03-21T05:39:36;145.87;;;47.10;;
11835;SDS011;5977;51.972;7.640;2023-03-21T05:42:13;145.43;;;46.93;;
11835;SDS011;5977;51.972;7.640;2023-03-21T05:44:41;145.77;;;47.00;;
11835;SDS011;5977;51.972;7.640;2023-03-21T05:47:10;146.60;;;47.50;;
11835;SDS011;5977;51.972;7.640;2023-03-21T05:49:44;145.37;;;46.97;;
11835;SDS011;5977;51.972;7.640;2023-03-21T05:52:13;146.20;;;47.20;;
11835;SDS011;5977;51.972;7.640;2023-03-21T05:54:41;146.37;;;47.30;;
11835;SDS011;5977;51.972;7.640;2023-03-21T05:57:09;146.00;;;47.20;;
11835;SDS011;5977;51.972;7.640;2023-03-21T05:59:57;145.23;;;47.00;;
11835;SDS011;5977;51.972;7.640;2023-03-21T06:02:26;146.37;;;47.40;;
11835;SDS011;5977;51.972;7.640;2023-03-21T06:04:59;145.10;;;46.77;;
11835;SDS011;5977;51.972;7.640;2023-03-21T06:07:27;145.80;;;47.17;;
11835;SDS011;5977;51.972;7.640;2023-03-21T06:09:55;146.00;;;47.17;;
11835;SDS011;5977;51.972;7.640;2023-03-21T06:12:23;145.57;;;47.13;;
11835;SDS011;5977;51.972;7.640;2023-03-21T06:15:00;146.20;;;47.17;;
11835;SDS011;5977;51.972;7.640;2023-03-21T06:17:34;145.40;;;46.97;;
11835;SDS011;5977;51.972;7.640;2023-03-21T06:20:08;146.03;;;47.30;;
11835;SDS011;5977;51.972;7.640;2023-03-21T06:22:45;145.20;;;46.87;;
11835;SDS011;5977;51.972;7.640;2023-03-21T06:25:13;145.97;;;47.17;;
11835;SDS011;5977;51.972;7.640;2023-03-21T06:27:42;145.97;;;47.20;;
11835;SDS011;5977;51.972;7.640;2023-03-21T06:30:10;146.10;;;47.20;;
11835;SDS011;5977;51.972;7.640;2023-03-21T06:32:51;146.30;;;47.40;;
11835;SDS011;5977;51.972;7.640;2023-03-21T06:35:21;146.13;;;47.37;;
11835;SDS011;5977;51.972;7.640;2023-03-21T06:37:49;146.27;;;47.33;;
11835;SDS011;5977;51.972;7.640;2023-03-21T06:40:18;145.90;;;47.17;;
11835;SDS011;5977;51.972;7.640;2023-03-21T06:42:46;145.50;;;46.90;;
11835;SDS011;5977;51.972;7.640;2023-03-21T06:45:14;145.83;;;47.27;;
11835;SDS011;5977;51.972;7.640;2023-03-21T06:47:42;146.10;;;47.40;;
11835;SDS011;5977;51.972;7.640;2023-03-21T06:50:24;145.67;;;47.10;;
11835;SDS011;5977;51.972;7.640;2023-03-21T06:52:53;145.77;;;47.13;;
11835;SDS011;5977;51.972;7.640;2023-03-21T06:55:22;145.73;;;47.13;;
11835;SDS011;5977;51.972;7.640;2023-03-21T06:57:52;145.50;;;47.10;;
11835;SDS011;5977;51.972;7.640;2023-03-21T07:00:24;145.63;;;47.10;;
11835;SDS011;5977;51.972;7.640;2023-03-21T07:02:52;145.97;;;47.20;;
11835;SDS011;5977;51.972;7.640;2023-03-21T07:05:22;145.50;;;47.03;;
11835;SDS011;5977;51.972;7.640;2023-03-21T07:07:52;146.20;;;47.33;;
11835;SDS011;5977;51.972;7.640;2023-03-21T07:10:21;146.23;;;47.40;;
11835;SDS011;5977;51.972;7.640;2023-03-21T07:12:59;145.43;;;46.97;;
11835;SDS011;5977;51.972;7.640;2023-03-21T07:15:35;146.07;;;47.33;;
11835;SDS011;5977;51.972;7.640;2023-03-21T07:18:04;145.40;;;46.90;;
11835;SDS011;5977;51.972;7.640;2023-03-21T07:20:35;145.93;;;47.20;;
11835;SDS011;5977;51.972;7.640;2023-03-21T07:23:04;146.30;;;47.30;;
11835;SDS011;5977;51.972;7.640;2023-03-21T07:25:32;146.23;;;47.40;;
11835;SDS011;5977;51.972;7.640;2023-03-21T07:28:01;145.10;;;46.83;;
11835;SDS011;5977;51.972;7.640;2023-03-21T07:30:31;146.03;;;47.20;;
11835;SDS011;5977;51.972;7.640;2023-03-21T07:33:00;146.67;;;47.50;;
11835;SDS011;5977;51.972;7.640;2023-03-21T07:35:28;144.97;;;46.90;;
11835;SDS011;5977;51.972;7.640;2023-03-21T07:37:58;145.73;;;47.07;;
11835;SDS011;5977;51.972;7.640;2023-03-21T07:40:26;146.40;;;47.37;;
11835;SDS011;5977;51.972;7.640;2023-03-21T07:42:54;145.93;;;47.13;;
11835;SDS011;5977;51.972;7.640;2023-03-21T07:45:32;146.13;;;47.30;;
11835;SDS011;5977;51.972;7.640;2023-03-21T07:48:00;146.07;;;47.30;;
11835;SDS011;5977;51.972;7.640;2023-03-21T07:50:32;145.67;;;47.07;;
11835;SDS011;5977;51.972;7.640;2023-03-21T07:53:01;145.73;;;47.00;;
11835;SDS011;5977;51.972;7.640;2023-03-21T07:55:29;146.00;;;47.30;;
11835;SDS011;5977;51.972;7.640;2023-03-21T07:57:59;145.73;;;47.13;;
11835;SDS011;5977;51.972;7.640;2023-03-21T08:00:28;146.07;;;47.37;;
11835;SDS011;5977;51.972;7.640;2023-03-21T08:02:56;145.87;;;47.17;;
11835;SDS011;5977;51.972;7.640;2023-03-21T08:05:25;146.33;;;47.30;;
11835;SDS011;5977;51.972;7.640;2023-03-21T08:07:56;146.57;;;47.57;;
11835;SDS011;5977;51.972;7.640;2023-03-21T08:10:25;146.47;;;47.43;;
11835;SDS011;5977;51.972;7.640;2023-03-21T08:12:54;146.70;;;47.47;;
11835;SDS011;5977;51.972;7.640;2023-03-21T08:15:21;145.60;;;47.00;;
11835;SDS011;5977;51.972;7.640;2023-03-21T08:17:49;146.17;;;47.33;;
11835;SDS011;5977;51.972;7.640;2023-03-21T08:20:18;146.57;;;47.50;;
11835;SDS011;5977;51.972;7.640;2023-03-21T08:22:48;146.23;;;47.40;;
11835;SDS011;5977;51.972;7.640;2023-03-21T08:25:17;146.93;;;47.47;;
11835;SDS011;5977;51.972;7.640;2023-03-21T08:27:48;146.07;;;47.17;;
11835;SDS011;5977;51.972;7.640;2023-03-21T08:30:18;146.77;;;47.53;;
11835;SDS011;5977;51.972;7.640;2023-03-21T08:32:47;146.50;;;47.37;;
11835;SDS011;5977;51.972;7.640;2023-03-21T08:35:16;146.73;;;47.50;;
11835;SDS011;5977;51.972;7.640;2023-03-21T08:37:45;146.30;;;47.37;;
11835;SDS011;5977;51.972;7.640;2023-03-21T08:40:14;146.60;;;47.30;;
11835;SDS011;5977;51.972;7.640;2023-03-21T08:42:43;146.03;;;47.27;;
11835;SDS011;5977;51.972;7.640;2023-03-21T08:45:15;145.97;;;47.20;;
11835;SDS011;5977;51.972;7.640;2023-03-21T08:47:44;146.77;;;47.50;;
11835;SDS011;5977;51.972;7.640;2023-03-21T08:50:12;146.20;;;47.33;;
11835;SDS011;5977;51.972;7.640;2023-03-21T08:52:42;146.17;;;47.30;;
11835;SDS011;5977;51.972;7.640;2023-03-21T08:55:10;147.10;;;47.60;;
11835;SDS011;5977;51.972;7.640;2023-03-21T08:57:38;146.67;;;47.37;;
11835;SDS011;5977;51.972;7.640;2023-03-21T09:00:08;146.40;;;47.50;;
11835;SDS011;5977;51.972;7.640;2023-03-21T09:02:41;146.40;;;47.40;;
11835;SDS011;5977;51.972;7.640;2023-03-21T09:05:11;146.70;;;47.60;;
11835;SDS011;5977;51.972;7.640;2023-03-21T09:07:39;146.33;;;47.40;;
11835;SDS011;5977;51.972;7.640;2023-03-21T09:10:08;146.63;;;47.53;;
11835;SDS011;5977;51.972;7.640;2023-03-21T09:12:47;146.40;;;47.40;;
11835;SDS011;5977;51.972;7.640;2023-03-21T09:15:16;146.47;;;47.37;;
11835;SDS011;5977;51.972;7.640;2023-03-21T09:17:48;146.73;;;47.40;;
11835;SDS011;5977;51.972;7.640;2023-03-21T09:20:18;146.63;;;47.40;;
11835;SDS011;5977;51.972;7.640;2023-03-21T09:22:51;146.20;;;47.30;;
11835;SDS011;5977;51.972;7.640;2023-03-21T09:25:19;146.47;;;47.33;;
11835;SDS011;5977;51.972;7.640;2023-03-21T09:27:49;146.40;;;47.30;;
11835;SDS011;5977;51.972;7.640;2023-03-21T09:30:18;146.77;;;47.43;;
11835;SDS011;5977;51.972;7.640;2023-03-21T09:32:50;147.07;;;47.63;;
11835;SDS011;5977;51.972;7.640;2023-03-21T09:35:19;146.50;;;47.40;;
11835;SDS011;5977;51.972;7.640;2023-03-21T09:37:47;147.13;;;47.53;;
11835;SDS011;5977;51.972;7.640;2023-03-21T09:40:17;146.90;;;47.67;;
11835;SDS011;5977;51.972;7.640;2023-03-21T09:42:50;147.03;;;47.63;;
11835;SDS011;5977;51.972;7.640;2023-03-21T09:45:27;147.30;;;47.77;;
11835;SDS011;5977;51.972;7.640;2023-03-21T09:48:05;147.20;;;47.67;;
11835;SDS011;5977;51.972;7.640;2023-03-21T09:50:42;147.40;;;47.60;;
11835;SDS011;5977;51.972;7.640;2023-03-21T09:53:12;147.53;;;47.80;;
11835;SDS011;5977;51.972;7.640;2023-03-21T09:55:52;147.70;;;47.83;;
11835;SDS011;5977;51.972;7.640;2023-03-21T09:58:23;147.03;;;47.40;;
11835;SDS011;5977;51.972;7.640;2023-03-21T10:00:56;147.40;;;47.67;;
11835;SDS011;5977;51.972;7.640;2023-03-21T10:03:32;147.40;;;47.67;;
11835;SDS011;5977;51.972;7.640;2023-03-21T10:06:02;147.43;;;47.70;;
11835;SDS011;5977;51.972;7.640;2023-03-21T10:08:36;146.97;;;47.57;;
11835;SDS011;5977;51.972;7.640;2023-03-21T10:11:09;147.43;;;47.83;;
11835;SDS011;5977;51.972;7.640;2023-03-21T10:13:40;147.60;;;47.73;;
11835;SDS011;5977;51.972;7.640;2023-03-21T10:16:14;146.93;;;47.57;;
11835;SDS011;5977;51.972;7.640;2023-03-21T10:18:46;147.60;;;47.70;;
11835;SDS011;5977;51.972;7.640;2023-03-21T10:21:17;147.47;;;47.63;;
11835;SDS011;5977;51.972;7.640;2023-03-21T10:24:08;147.60;;;47.70;;
11835;SDS011;5977;51.972;7.640;2023-03-21T10:26:38;147.67;;;47.83;;
11835;SDS011;5977;51.972;7.640;2023-03-21T10:29:08;147.93;;;47.83;;
11835;SDS011;5977;51.972;7.640;2023-03-21T10:31:39;147.20;;;47.67;;
11835;SDS011;5977;51.972;7.640;2023-03-21T10:34:11;147.73;;;47.90;;
11835;SDS011;5977;51.972;7.640;2023-03-21T10:36:43;148.10;;;47.80;;
11835;SDS011;5977;51.972;7.640;2023-03-21T10:39:14;147.80;;;47.80;;
11835;SDS011;5977;51.972;7.640;2023-03-21T10:41:51;147.27;;;47.50;;
11835;SDS011;5977;51.972;7.640;2023-03-21T10:44:19;147.87;;;47.90;;
11835;SDS011;5977;51.972;7.640;2023-03-21T10:46:51;148.23;;;48.00;;
11835;SDS011;5977;51.972;7.640;2023-03-21T10:49:22;147.30;;;47.57;;
11835;SDS011;5977;51.972;7.640;2023-03-21T10:51:52;147.93;;;47.73;;
11835;SDS011;5977;51.972;7.640;2023-03-21T10:54:24;148.00;;;47.87;;
11835;SDS011;5977;51.972;7.640;2023-03-21T10:56:55;147.60;;;47.67;;
11835;SDS011;5977;51.972;7.640;2023-03-21T10:59:25;147.47;;;47.63;;
11835;SDS011;5977;51.972;7.640;2023-03-21T11:02:01;147.77;;;47.83;;
11835;SDS011;5977;51.972;7.640;2023-03-21T11:04:33;148.30;;;48.10;;
11835;SDS011;5977;51.972;7.640;2023-03-21T11:07:04;147.63;;;47.63;;
11835;SDS011;5977;51.972;7.640;2023-03-21T11:09:43;147.03;;;47.37;;
11835;SDS011;5977;51.972;7.640;2023-03-21T11:12:13;147.63;;;47.80;;
11835;SDS011;5977;51.972;7.640;2023-03-21T11:14:43;148.10;;;48.03;;
11835;SDS011;5977;51.972;7.640;2023-03-21T11:17:19;147.57;;;47.67;;
11835;SDS011;5977;51.972;7.640;2023-03-21T11:19:50;147.50;;;47.63;;
11835;SDS011;5977;51.972;7.640;2023-03-21T11:22:19;147.90;;;47.83;;
11835;SDS011;5977;51.972;7.640;2023-03-21T11:24:50;148.37;;;47.97;;
11835;SDS011;5977;51.972;7.640;2023-03-21T11:27:19;147.63;;;47.87;;
11835;SDS011;5977;51.972;7.640;2023-03-21T11:29:48;147.77;;;47.87;;
11835;SDS011;5977;51.972;7.640;2023-03-21T11:32:21;148.57;;;48.10;;
11835;SDS011;5977;51.972;7.640;2023-03-21T11:34:55;147.93;;;47.77;;
11835;SDS011;5977;51.972;7.640;2023-03-21T11:37:27;148.03;;;47.80;;
11835;SDS011;5977;51.972;7.640;2023-03-21T11:40:05;147.33;;;47.63;;
11835;SDS011;5977;51.972;7.640;2023-03-21T11:42:45;148.00;;;47.87;;
11835;SDS011;5977;51.972;7.640;2023-03-21T11:45:18;148.47;;;48.10;;
11835;SDS011;5977;51.972;7.640;2023-03-21T11:47:47;148.40;;;48.03;;
11835;SDS011;5977;51.972;7.640;2023-03-21T11:50:19;148.40;;;47.97;;
11835;SDS011;5977;51.972;7.640;2023-03-21T11:53:02;148.33;;;48.07;;
11835;SDS011;5977;51.972;7.640;2023-03-21T11:55:40;148.00;;;47.80;;
11835;SDS011;5977;51.972;7.640;2023-03-21T11:58:21;148.00;;;48.00;;
11835;SDS011;5977;51.972;7.640;2023-03-21T12:01:01;147.97;;;47.87;;
11835;SDS011;5977;51.972;7.640;2023-03-21T12:03:45;148.13;;;47.90;;
11835;SDS011;5977;51.972;7.640;2023-03-21T12:06:24;148.40;;;48.03;;
11835;SDS011;5977;51.972;7.640;2023-03-21T12:08:59;147.87;;;47.90;;
11835;SDS011;5977;51.972;7.640;2023-03-21T12:11:38;147.93;;;47.80;;
11835;SDS011;5977;51.972;7.640;2023-03-21T12:14:16;148.23;;;47.93;;
11835;SDS011;5977;51.972;7.640;2023-03-21T12:16:54;147.80;;;47.73;;
11835;SDS011;5977;51.972;7.640;2023-03-21T12:19:44;147.70;;;47.73;;
11835;SDS011;5977;51.972;7.640;2023-03-21T12:22:39;147.97;;;47.93;;
11835;SDS011;5977;51.972;7.640;2023-03-21T12:25:17;148.47;;;48.13;;
11835;SDS011;5977;51.972;7.640;2023-03-21T12:27:55;148.73;;;48.27;;
11835;SDS011;5977;51.972;7.640;2023-03-21T12:30:37;148.60;;;48.20;;
11835;SDS011;5977;51.972;7.640;2023-03-21T12:33:19;148.03;;;47.80;;
11835;SDS011;5977;51.972;7.640;2023-03-21T12:35:58;149.20;;;48.27;;
11835;SDS011;5977;51.972;7.640;2023-03-21T12:38:51;149.03;;;48.33;;
11835;SDS011;5977;51.972;7.640;2023-03-21T12:41:27;149.00;;;48.37;;
11835;SDS011;5977;51.972;7.640;2023-03-21T12:44:01;148.87;;;48.07;;
11835;SDS011;5977;51.972;7.640;2023-03-21T12:46:32;149.13;;;48.40;;
11835;SDS011;5977;51.972;7.640;2023-03-21T12:49:04;149.93;;;48.57;;
11835;SDS011;5977;51.972;7.640;2023-03-21T12:51:40;148.97;;;48.37;;
11835;SDS011;5977;51.972;7.640;2023-03-21T12:54:16;148.83;;;48.03;;
11835;SDS011;5977;51.972;7.640;2023-03-21T12:56:52;149.87;;;48.67;;
11835;SDS011;5977;51.972;7.640;2023-03-21T12:59:29;149.87;;;48.67;;
11835;SDS011;5977;51.972;7.640;2023-03-21T13:02:06;149.47;;;48.53;;
11835;SDS011;5977;51.972;7.640;2023-03-21T13:04:44;149.77;;;48.63;;
11835;SDS011;5977;51.972;7.640;2023-03-21T13:07:18;149.90;;;48.60;;
11835;SDS011;5977;51.972;7.640;2023-03-21T13:09:51;149.73;;;48.60;;
11835;SDS011;5977;51.972;7.640;2023-03-21T13:12:24;149.30;;;48.37;;
11835;SDS011;5977;51.972;7.640;2023-03-21T13:15:11;149.67;;;48.57;;
11835;SDS011;5977;51.972;7.640;2023-03-21T13:17:55;149.97;;;48.60;;
11835;SDS011;5977;51.972;7.640;2023-03-21T13:20:31;149.57;;;48.43;;
11835;SDS011;5977;51.972;7.640;2023-03-21T13:23:06;150.00;;;48.87;;
11835;SDS011;5977;51.972;7.640;2023-03-21T13:25:39;150.20;;;48.70;;
11835;SDS011;5977;51.972;7.640;2023-03-21T13:28:14;149.53;;;48.37;;
11835;SDS011;5977;51.972;7.640;2023-03-21T13:30:45;149.57;;;48.40;;
11835;SDS011;5977;51.972;7.640;2023-03-21T13:33:15;149.53;;;48.50;;
11835;SDS011;5977;51.972;7.640;2023-03-21T13:35:53;149.70;;;48.27;;
11835;SDS011;5977;51.972;7.640;2023-03-21T13:38:30;150.07;;;48.43;;
11835;SDS011;5977;51.972;7.640;2023-03-21T13:41:04;150.00;;;48.57;;
11835;SDS011;5977;51.972;7.640;2023-03-21T13:43:47;149.87;;;48.50;;
11835;SDS011;5977;51.972;7.640;2023-03-21T13:49:27;149.60;;;48.23;;
11835;SDS011;5977;51.972;7.640;2023-03-21T13:52:00;150.40;;;48.70;;
11835;SDS011;5977;51.972;7.640;2023-03-21T13:54:49;149.67;;;48.37;;
11835;SDS011;5977;51.972;7.640;2023-03-21T13:57:21;150.03;;;48.53;;
11835;SDS011;5977;51.972;7.640;2023-03-21T14:00:14;149.40;;;48.10;;
11835;SDS011;5977;51.972;7.640;2023-03-21T14:02:50;149.77;;;48.50;;
11835;SDS011;5977;51.972;7.640;2023-03-21T14:05:22;149.87;;;48.47;;
11835;SDS011;5977;51.972;7.640;2023-03-21T14:07:52;150.00;;;48.47;;
11835;SDS011;5977;51.972;7.640;2023-03-21T14:10:32;149.83;;;48.40;;
11835;SDS011;5977;51.972;7.640;2023-03-21T14:13:03;150.93;;;48.90;;
11835;SDS011;5977;51.972;7.640;2023-03-21T14:15:35;150.07;;;48.43;;
11835;SDS011;5977;51.972;7.640;2023-03-21T14:18:15;150.20;;;48.47;;
11835;SDS011;5977;51.972;7.640;2023-03-21T14:21:05;149.97;;;48.53;;
11835;SDS011;5977;51.972;7.640;2023-03-21T14:23:54;149.97;;;48.53;;
11835;SDS011;5977;51.972;7.640;2023-03-21T14:26:24;150.17;;;48.70;;
11835;SDS011;5977;51.972;7.640;2023-03-21T14:28:54;149.97;;;48.47;;
11835;SDS011;5977;51.972;7.640;2023-03-21T14:31:23;149.70;;;48.40;;
11835;SDS011;5977;51.972;7.640;2023-03-21T14:33:54;150.37;;;48.80;;
11835;SDS011;5977;51.972;7.640;2023-03-21T14:36:24;150.43;;;48.63;;
11835;SDS011;5977;51.972;7.640;2023-03-21T14:39:02;150.00;;;48.50;;
11835;SDS011;5977;51.972;7.640;2023-03-21T14:41:33;150.00;;;48.40;;
11835;SDS011;5977;51.972;7.640;2023-03-21T14:44:18;150.23;;;48.70;;
11835;SDS011;5977;51.972;7.640;2023-03-21T14:46:52;150.03;;;48.47;;
11835;SDS011;5977;51.972;7.640;2023-03-21T14:49:26;150.77;;;48.83;;
11835;SDS011;5977;51.972;7.640;2023-03-21T14:51:56;150.23;;;48.50;;
11835;SDS011;5977;51.972;7.640;2023-03-21T14:54:25;150.50;;;48.67;;
11835;SDS011;5977;51.972;7.640;2023-03-21T14:56:56;150.60;;;48.67;;
11835;SDS011;5977;51.972;7.640;2023-03-21T14:59:28;150.33;;;48.60;;
11835;SDS011;5977;51.972;7.640;2023-03-21T15:01:59;150.53;;;48.53;;
11835;SDS011;5977;51.972;7.640;2023-03-21T15:04:29;150.60;;;48.80;;
11835;SDS011;5977;51.972;7.640;2023-03-21T15:06:58;150.57;;;48.73;;